METAR Data
IDs: Format: Raw Decoded Include TAF

Data at: 0631 UTC 11 Dec 2018

PAFM 110556Z AUTO 03013KT 10SM CLR M17/M21 A2906 RMK AO2 SLP854 T11671206 11161 21172 55008 FZRANO
PAFM 110456Z AUTO 04013KT 10SM OVC090 M16/M21 A2905 RMK AO2 SLP852 T11611206 FZRANO
PAFM 110356Z AUTO 03013KT 10SM BKN050 OVC065 M17/M21 A2907 RMK AO2 SLP857 T11671206 FZRANO
PAFM 110256Z AUTO 03014KT 10SM BKN060 M17/M21 A2908 RMK AO2 SLP861 T11671206 56013 FZRANO
PAFM 110156Z AUTO 04013KT 10SM BKN060 M17/M21 A2909 RMK AO2 SLP865 T11671211 FZRANO
PAFM 110056Z AUTO 03012KT 10SM CLR M17/M21 A2910 RMK AO2 SLP868 T11721211 FZRANO
PAFM 102256Z AUTO 04011KT 10SM CLR M17/M21 A2913 RMK AO2 SLP879 T11671206 FZRANO
PAFM 102156Z AUTO 02013KT 10SM CLR M17/M21 A2913 RMK AO2 SLP879 T11671206 FZRANO
PAFM 102056Z AUTO 04012G19KT 9SM CLR M16/M21 A2915 RMK AO2 SLP884 T11611206 55004 FZRANO
PAFM 101856Z AUTO 02017KT 10SM CLR M17/M21 A2915 RMK AO2 SLP884 T11671206 FZRANO
PAFM 101756Z AUTO 02012KT 10SM OVC055 M17/M20 A2916 RMK AO2 SLP888 60000 T11671200 11161 21172 58005 FZRANO
PAFM 101656Z AUTO 03012KT 10SM OVC050 M16/M19 A2916 RMK AO2 SLP890 T11611194 FZRANO
PAFM 101556Z AUTO 03013KT 9SM OVC050 M17/M19 A2917 RMK AO2 SNE54 SLP893 P0000 T11671194 FZRANO
PAFM 101456Z AUTO 02015KT 7SM -SN OVC055 M17/M19 A2917 RMK AO2 SLP893 P0000 60000 T11671194 56005 FZRANO
PAFM 101429Z AUTO 03014KT 6SM -SN FEW008 BKN060 M17/M19 A2918 RMK AO2 P0000 FZRANO
PAFM 101414Z AUTO 03014KT 3SM -SN SCT008 BKN014 BKN060 M17/M19 A2918 RMK AO2 P0000 FZRANO
PAFM 101403Z AUTO 03014KT 5SM -SN SCT014 BKN030 OVC060 M17/M19 A2918 RMK AO2 P0000 FZRANO
PAFM 101354Z AUTO 03013KT 5SM -SN SCT012 BKN028 OVC060 M17/M19 A2918 RMK AO2 P0000 FZRANO
PAFM 101345Z AUTO 03013KT 3SM -SN BKN014 BKN028 BKN060 M17/M19 A2918 RMK AO2 P0000 FZRANO
PAFM 101338Z AUTO 03014KT 3SM -SN FEW009 BKN018 OVC028 M17/M19 A2918 RMK AO2 P0000 FZRANO
PAFM 101331Z AUTO 03016KT 5SM -SN BKN012 BKN018 OVC026 M17/M19 A2918 RMK AO2 P0000 FZRANO
PAFM 101249Z AUTO 03013KT 4SM -SN BKN026 OVC060 M17/M19 A2919 RMK AO2 P0000 FZRANO
PAFM 101156Z AUTO 03012KT 9SM -SN FEW021 SCT070 M17/M20 A2919 RMK AO2 SLP900 P0000 60000 T11721200 11167 21178 52004 FZRANO
PAFM 101146Z AUTO 03013KT 9SM -SN SCT019 BKN070 M17/M20 A2919 RMK AO2 P0000 FZRANO
PAFM 101126Z AUTO 03014KT 7SM -SN BKN017 BKN028 M17/M20 A2919 RMK AO2 P0000 FZRANO
PAFM 101056Z AUTO 03014KT 4SM -SN BR FEW025 M17/M19 A2919 RMK AO2 SLP898 P0000 T11721194 FZRANO
PAFM 101048Z AUTO 03014KT 5SM -SN BR FEW018 SCT026 M17/M19 A2919 RMK AO2 P0000 FZRANO
PAFM 100956Z AUTO 03014KT 4SM -SN BKN016 OVC021 M17/M20 A2919 RMK AO2 SLP897 P0000 T11721200 FZRANO
PAFM 100856Z AUTO 02013KT 3SM -SN BR OVC022 M17/M19 A2918 RMK AO2 SLP896 P0000 60000 T11721194 53007 FZRANO
PAFM 100831Z AUTO 03016KT 4SM -SN BKN019 BKN029 M17/M20 A2918 RMK AO2 P0000 FZRANO
PAFM 100756Z AUTO 03015KT 8SM -SN CLR M17/M20 A2917 RMK AO2 SLP892 P0000 T11721200 411331178 FZRANO
PAFM 100656Z AUTO 03014KT 4SM -SN OVC023 M17/M21 A2917 RMK AO2 SLP891 P0000 T11721206 FZRANO
PAFM 100556Z AUTO 03016KT 5SM -SN OVC025 M17/M20 A2916 RMK AO2 SLP889 P0000 60000 T11721200 11167 21172 53008 FZRANO
PAFM 100505Z AUTO 03015KT 8SM -SN OVC029 M17/M21 A2915 RMK AO2 P0000 FZRANO
PAFM 100456Z AUTO 02016KT 9SM -SN SCT026 BKN031 OVC060 M17/M21 A2915 RMK AO2 SLP884 P0000 T11721206 FZRANO
PAFM 100356Z AUTO 03015KT 9SM -SN FEW029 M17/M21 A2914 RMK AO2 SNB0259 SLP882 P0000 T11721206 FZRANO
PAFM 100256Z AUTO 03017KT 9SM BKN033 M17/M21 A2914 RMK AO2 SNB13E56 SLP880 P0000 60000 T11721206 58002 FZRANO
PAFM 100156Z AUTO 03015KT 10SM OVC055 M17/M21 A2914 RMK AO2 SNE02 SLP881 P0000 T11671206 FZRANO
PAFM 100056Z AUTO 03017KT 9SM -SN OVC055 M17/M20 A2914 RMK AO2 SNE30B46 SLP882 P0000 T11671200 FZRANO
PAFM 092356Z AUTO 03017KT 9SM -SN OVC050 M17/M20 A2914 RMK AO2 SLP883 P0000 60000 T11671200 11156 21167 50004 FZRANO
PAFM 092256Z AUTO 03015KT 9SM -SN OVC060 M17/M20 A2915 RMK AO2 SLP884 P0000 T11671200 FZRANO
PAFM 092156Z AUTO 03016KT 8SM -SN OVC038 M16/M19 A2914 RMK AO2 SLP883 P0000 T11611194 FZRANO
PAFM 092056Z AUTO 03017KT 9SM -SN OVC039 M16/M19 A2913 RMK AO2 SLP879 P0000 60000 T11611189 50006 FZRANO
PAFM 092010Z AUTO 03018KT 3SM -SN FEW013 BKN035 OVC043 M16/M19 A2913 RMK AO2 P0000 FZRANO
PAFM 091956Z AUTO 03015KT 3SM -SN SCT009 BKN014 OVC020 M16/M19 A2913 RMK AO2 SLP880 P0000 T11611194 FZRANO
PAFM 091942Z AUTO 03016KT 2 1/2SM -SN BKN009 BKN016 OVC022 M16/M19 A2913 RMK AO2 CIG 008V014 P0000 FZRANO
PAFM 091931Z AUTO 03015KT 2 1/2SM -SN BKN011 OVC019 M16/M19 A2913 RMK AO2 CIG 009V014 P0000 FZRANO
PAFM 091904Z AUTO 03016KT 4SM -SN FEW018 BKN025 OVC050 M16/M19 A2912 RMK AO2 P0000 FZRANO
PAFM 091856Z AUTO 02015KT 4SM -SN FEW018 BKN030 OVC050 M16/M19 A2912 RMK AO2 SLP874 P0000 T11611194 FZRANO